Time;durP1;ratioP1;P1;durP2;ratioP2;P2;SDS_P1;SDS_P2;PMS_P1;PMS_P2;Temp;Humidity;BMP_temperature;BMP_pressure;BME280_temperature;BME280_humidity;BME280_pressure;Samples;Min_cycle;Max_cycle;Signal;HPM_P1;HPM_P2
2021/07/10 00:00:13;;;;;;;10.82;8.85;;;;;;;20.35;55.07;100162.53;5032134;28;20053;-82
2021/07/10 00:02:40;;;;;;;11.45;8.68;;;;;;;20.32;55.36;100155.66;5032607;28;20391;-82
2021/07/10 00:05:09;;;;;;;8.85;8.00;;;;;;;20.30;55.54;100163.81;5032709;28;20053;-82
2021/07/10 00:07:36;;;;;;;10.68;8.27;;;;;;;20.28;55.63;100162.25;5032451;28;20730;-82
2021/07/10 00:10:06;;;;;;;9.18;8.18;;;;;;;20.24;56.20;100156.38;5032667;28;20409;-82
2021/07/10 00:12:53;;;;;;;9.27;8.25;;;;;;;20.20;55.88;100156.78;5032585;28;20408;-82
2021/07/10 00:15:21;;;;;;;9.48;7.85;;;;;;;20.22;55.91;100152.97;5032779;28;20056;-82
2021/07/10 00:17:53;;;;;;;10.48;8.55;;;;;;;20.18;56.20;100151.56;5032331;28;20508;-82
2021/07/10 00:20:21;;;;;;;9.55;8.35;;;;;;;20.18;55.54;100144.41;5032084;28;20049;-82
2021/07/10 00:22:48;;;;;;;9.75;8.75;;;;;;;20.15;55.89;100139.31;5032038;28;20120;-81
2021/07/10 00:25:18;;;;;;;8.90;8.00;;;;;;;20.12;56.49;100139.63;5032223;28;20053;-82
2021/07/10 00:27:46;;;;;;;12.05;8.85;;;;;;;20.12;56.20;100142.31;5032319;28;20045;-82
2021/07/10 00:30:17;;;;;;;11.05;8.45;;;;;;;20.10;55.88;100138.91;5031877;28;20060;-81
2021/07/10 00:32:52;;;;;;;10.75;9.20;;;;;;;20.07;56.24;100141.03;5032421;28;20126;-82
2021/07/10 00:35:19;;;;;;;9.52;8.07;;;;;;;20.07;55.74;100135.69;5032160;28;20045;-81
2021/07/10 00:37:46;;;;;;;9.07;7.32;;;;;;;20.03;55.39;100125.28;5032167;28;20137;-82
2021/07/10 00:40:14;;;;;;;9.15;8.27;;;;;;;20.01;55.86;100134.41;5032152;28;20477;-82
2021/07/10 00:42:42;;;;;;;10.63;9.32;;;;;;;20.01;56.37;100137.09;5031781;28;20136;-82
2021/07/10 00:45:19;;;;;;;9.55;8.50;;;;;;;19.96;57.08;100133.97;5031822;28;20201;-82
2021/07/10 00:47:46;;;;;;;12.32;8.57;;;;;;;19.98;56.53;100138.22;5032087;28;20455;-81
2021/07/10 00:50:17;;;;;;;9.88;8.27;;;;;;;19.98;56.78;100131.97;5031943;28;20053;-82
2021/07/10 00:52:44;;;;;;;9.98;8.43;;;;;;;19.99;56.65;100131.00;5031750;28;20140;-81
2021/07/10 00:55:12;;;;;;;9.18;8.30;;;;;;;20.00;56.70;100133.56;5032047;28;20137;-81
2021/07/10 00:57:41;;;;;;;10.45;8.98;;;;;;;20.01;57.12;100131.75;5031930;28;20046;-82
2021/07/10 01:00:16;;;;;;;11.00;8.88;;;;;;;20.01;57.14;100129.06;5032887;28;20494;-82
2021/07/10 01:02:45;;;;;;;11.65;8.43;;;;;;;20.03;56.83;100129.75;5035970;28;20057;-82
2021/07/10 01:05:16;;;;;;;9.95;8.52;;;;;;;20.02;56.90;100128.06;5035499;28;20096;-82
2021/07/10 01:07:43;;;;;;;11.00;9.50;;;;;;;20.02;56.41;100126.25;5035590;28;20379;-82
2021/07/10 01:10:11;;;;;;;10.43;9.20;;;;;;;20.01;56.75;100123.72;5035340;28;20054;-82
2021/07/10 01:12:41;;;;;;;10.35;8.80;;;;;;;19.99;56.77;100125.69;5035689;28;20071;-82
2021/07/10 01:15:10;;;;;;;10.88;9.77;;;;;;;19.97;56.93;100120.47;5033984;28;20217;-82
2021/07/10 01:17:38;;;;;;;9.85;8.82;;;;;;;19.96;56.74;100123.28;5036012;28;20124;-81
2021/07/10 01:20:10;;;;;;;11.32;9.55;;;;;;;19.93;57.14;100122.56;5035253;28;20055;-81
2021/07/10 01:22:41;;;;;;;10.18;9.10;;;;;;;19.91;56.97;100121.88;5035490;28;20533;-82
2021/07/10 01:25:12;;;;;;;10.60;9.13;;;;;;;19.90;57.54;100117.50;5035179;28;20050;-82
2021/07/10 01:27:40;;;;;;;12.07;9.13;;;;;;;19.91;56.79;100119.19;5035024;28;20053;-82
2021/07/10 01:30:09;;;;;;;11.63;9.95;;;;;;;19.92;57.45;100117.34;5035135;28;20148;-81
2021/07/10 01:32:37;;;;;;;11.18;9.88;;;;;;;19.91;57.16;100113.84;5035227;28;20057;-82
2021/07/10 01:35:07;;;;;;;12.70;10.00;;;;;;;19.91;57.33;100111.19;5035017;28;20107;-82
2021/07/10 01:37:41;;;;;;;10.60;9.50;;;;;;;19.91;57.13;100099.63;5035281;28;20461;-82
2021/07/10 01:40:10;;;;;;;11.43;9.95;;;;;;;19.93;56.45;100101.19;5035236;28;20128;-82
2021/07/10 01:42:37;;;;;;;12.20;10.40;;;;;;;19.95;56.38;100105.56;5035192;28;20057;-82
2021/07/10 01:45:09;;;;;;;13.90;10.57;;;;;;;19.92;56.73;100102.16;5034686;28;20053;-82
2021/07/10 01:47:35;;;;;;;12.27;10.30;;;;;;;19.95;56.38;100101.03;5037035;28;20060;-82
2021/07/10 01:50:07;;;;;;;12.15;9.88;;;;;;;19.93;56.68;100098.50;5035576;28;20050;-82
2021/07/10 01:52:34;;;;;;;10.85;9.70;;;;;;;19.95;56.26;100098.38;5034685;28;20152;-82
2021/07/10 01:55:06;;;;;;;12.82;9.93;;;;;;;19.93;56.50;100090.50;5034516;28;20136;-82
2021/07/10 01:57:33;;;;;;;11.90;10.20;;;;;;;19.93;56.20;100090.50;5034936;28;20505;-82
2021/07/10 02:00:00;;;;;;;13.35;10.60;;;;;;;19.92;56.19;100085.28;5051301;28;20057;-81
2021/07/10 02:02:31;;;;;;;11.52;9.65;;;;;;;19.88;56.90;100086.56;5051398;28;20057;-82
2021/07/10 02:04:58;;;;;;;10.82;9.32;;;;;;;19.88;55.98;100084.72;5034457;28;20413;-82
2021/07/10 02:07:25;;;;;;;11.20;10.00;;;;;;;19.84;56.10;100088.66;5034568;28;20053;-82
2021/07/10 02:09:51;;;;;;;11.82;9.35;;;;;;;19.81;55.96;100083.59;5035229;28;20390;-81
2021/07/10 02:12:18;;;;;;;11.38;8.98;;;;;;;19.77;56.10;100082.19;5033095;28;20049;-82
2021/07/10 02:14:45;;;;;;;9.75;8.73;;;;;;;19.70;56.18;100079.22;5034117;28;20063;-81
2021/07/10 02:17:14;;;;;;;11.02;9.65;;;;;;;19.64;56.76;100080.66;5034549;28;20049;-81
2021/07/10 02:19:41;;;;;;;11.57;10.13;;;;;;;19.60;56.32;100084.59;5033866;28;20046;-81
2021/07/10 02:22:14;;;;;;;10.88;9.27;;;;;;;19.52;56.77;100087.09;5050731;28;20060;-81
2021/07/10 02:24:55;;;;;;;;;;;;;;;19.50;55.94;100091.72;5034589;28;20516;-82
2021/07/10 02:27:21;;;;;;;10.73;9.13;;;;;;;19.51;56.38;100090.75;5033996;28;19944;-82
2021/07/10 02:29:48;;;;;;;13.77;10.57;;;;;;;19.44;56.40;100087.75;5034155;28;20059;-81
2021/07/10 02:32:16;;;;;;;12.27;10.68;;;;;;;19.37;56.83;100087.47;5033804;28;20055;-82
2021/07/10 02:34:43;;;;;;;12.48;11.18;;;;;;;19.32;56.82;100084.38;5033765;28;20045;-81
2021/07/10 02:37:10;;;;;;;13.50;10.98;;;;;;;19.25;56.71;100086.75;5033298;28;20046;-81
2021/07/10 02:39:36;;;;;;;13.40;9.95;;;;;;;19.22;57.19;100086.19;5050277;28;20140;-82
2021/07/10 02:42:05;;;;;;;12.18;10.00;;;;;;;19.18;57.51;100076.75;5033037;28;20064;-82
2021/07/10 02:44:32;;;;;;;12.85;10.63;;;;;;;19.17;57.12;100069.75;5049827;28;20053;-81
2021/07/10 02:46:59;;;;;;;13.07;10.45;;;;;;;19.13;57.10;100072.66;5050245;28;20045;-81
2021/07/10 02:49:25;;;;;;;13.80;10.55;;;;;;;19.10;57.12;100074.78;5049526;28;20054;-81
2021/07/10 02:51:53;;;;;;;14.25;10.77;;;;;;;19.08;57.24;100066.91;5050031;28;20059;-81
2021/07/10 02:54:20;;;;;;;12.98;10.98;;;;;;;19.04;57.41;100065.44;5033472;28;20053;-81
2021/07/10 02:56:59;;;;;;;13.05;11.07;;;;;;;18.98;58.05;100071.31;5033447;28;20052;-81
2021/07/10 02:59:26;;;;;;;15.13;11.75;;;;;;;19.00;57.53;100061.38;5050040;28;20056;-82
2021/07/10 03:01:54;;;;;;;12.90;10.95;;;;;;;18.96;57.51;100066.13;5033546;28;20061;-81
2021/07/10 03:04:21;;;;;;;14.40;11.40;;;;;;;18.94;57.46;100061.88;5038067;28;20128;-82
2021/07/10 03:06:47;;;;;;;17.30;12.40;;;;;;;18.91;57.24;100052.34;5029834;28;20049;-81
2021/07/10 03:09:14;;;;;;;15.00;10.43;;;;;;;18.88;57.59;100053.44;5030063;28;20076;-82
2021/07/10 03:11:42;;;;;;;15.30;10.85;;;;;;;18.87;57.29;100058.91;5029700;28;20050;-81
2021/07/10 03:14:08;;;;;;;13.02;11.02;;;;;;;18.85;57.81;100050.22;5029824;28;20387;-81
2021/07/10 03:16:35;;;;;;;13.23;11.02;;;;;;;18.81;57.60;100049.66;5029778;28;20060;-81
2021/07/10 03:19:02;;;;;;;12.23;9.73;;;;;;;18.81;57.97;100054.13;5029567;28;20058;-82
2021/07/10 03:21:29;;;;;;;13.07;10.90;;;;;;;18.78;58.05;100049.91;5031034;28;20060;-81
2021/07/10 03:23:57;;;;;;;10.98;9.80;;;;;;;18.76;58.19;100062.50;5049269;28;20128;-82
2021/07/10 03:26:23;;;;;;;12.80;9.88;;;;;;;18.73;58.09;100055.63;5032946;28;20054;-82
2021/07/10 03:28:50;;;;;;;12.23;9.93;;;;;;;18.72;57.93;100056.63;5032916;28;20056;-82
2021/07/10 03:31:20;;;;;;;12.32;10.63;;;;;;;18.69;58.27;100056.88;5032897;28;20056;-82
2021/07/10 03:33:47;;;;;;;10.00;8.75;;;;;;;18.69;57.75;100059.53;5032940;28;20095;-82
2021/07/10 03:36:14;;;;;;;11.18;9.38;;;;;;;18.67;57.60;100063.31;5032497;28;20056;-81
2021/07/10 03:38:48;;;;;;;12.00;9.30;;;;;;;18.62;58.27;100059.22;5032880;28;20049;-82
2021/07/10 03:41:15;;;;;;;11.73;9.43;;;;;;;18.64;57.77;100059.09;5032917;28;20485;-82
2021/07/10 03:43:41;;;;;;;10.73;9.00;;;;;;;18.62;58.21;100053.06;5032888;28;20057;-82
2021/07/10 03:46:10;;;;;;;12.27;9.65;;;;;;;18.61;58.46;100059.34;5032625;28;20054;-82
2021/07/10 03:48:37;;;;;;;11.55;9.98;;;;;;;18.61;58.15;100052.22;5032740;28;20096;-81
2021/07/10 03:51:05;;;;;;;14.05;9.52;;;;;;;18.60;58.35;100047.00;5033131;28;20056;-82
2021/07/10 03:53:35;;;;;;;10.75;9.65;;;;;;;18.58;58.56;100051.66;5032420;28;20065;-81
2021/07/10 03:56:02;;;;;;;11.93;9.77;;;;;;;18.59;58.12;100046.19;5032695;28;20057;-81
2021/07/10 03:58:30;;;;;;;11.18;9.63;;;;;;;18.59;58.65;100045.34;5032772;28;20401;-81
2021/07/10 04:00:57;;;;;;;13.65;9.02;;;;;;;18.58;58.52;100036.47;5032528;28;20057;-81
2021/07/10 04:03:24;;;;;;;11.75;9.18;;;;;;;18.58;58.73;100027.66;5032658;28;20049;-81
2021/07/10 04:05:52;;;;;;;9.30;7.82;;;;;;;18.56;58.90;100021.59;5032481;28;20072;-81
2021/07/10 04:08:19;;;;;;;12.00;8.27;;;;;;;18.57;58.60;100028.59;5032174;28;20049;-81
2021/07/10 04:10:46;;;;;;;10.60;9.50;;;;;;;18.57;59.08;100025.94;5032130;28;20482;-81
2021/07/10 04:13:14;;;;;;;8.27;7.47;;;;;;;18.56;58.71;100027.78;5016023;28;20057;-81
2021/07/10 04:15:41;;;;;;;10.18;8.52;;;;;;;18.57;58.42;100033.94;5032242;28;20053;-81
2021/07/10 04:18:09;;;;;;;13.77;8.45;;;;;;;18.56;58.77;100027.78;5032540;28;20053;-81
2021/07/10 04:20:36;;;;;;;10.18;8.90;;;;;;;18.58;58.97;100033.81;5032085;28;20055;-81
2021/07/10 04:23:05;;;;;;;9.73;8.63;;;;;;;18.59;58.87;100032.00;5032319;28;20057;-82
2021/07/10 04:25:32;;;;;;;12.40;8.98;;;;;;;18.60;58.89;100034.53;5032160;28;20053;-82
2021/07/10 04:28:01;;;;;;;9.82;8.63;;;;;;;18.61;59.71;100028.22;5032121;28;20510;-81
2021/07/10 04:30:27;;;;;;;11.57;8.25;;;;;;;18.65;59.70;100027.97;5033367;28;20061;-81
2021/07/10 04:32:54;;;;;;;11.55;8.60;;;;;;;18.68;59.97;100027.66;5032175;28;20059;-82
2021/07/10 04:35:21;;;;;;;11.65;9.10;;;;;;;18.71;59.74;100032.75;5033304;28;20053;-82
2021/07/10 04:37:55;;;;;;;10.15;8.70;;;;;;;18.72;59.86;100029.09;5036075;28;20051;-82
2021/07/10 04:40:22;;;;;;;14.38;10.02;;;;;;;18.79;59.21;100030.25;5035858;28;20054;-82
2021/07/10 04:42:53;;;;;;;11.10;9.35;;;;;;;18.80;59.41;100037.28;5052103;28;20060;-81
2021/07/10 04:45:20;;;;;;;10.35;9.15;;;;;;;18.83;59.27;100030.81;5035837;28;20404;-82
2021/07/10 04:47:51;;;;;;;12.68;9.60;;;;;;;18.82;59.65;100029.16;5036736;28;20052;-81
2021/07/10 04:50:17;;;;;;;9.73;7.80;;;;;;;18.85;59.43;100023.53;5036112;28;20067;-82
2021/07/10 04:52:45;;;;;;;12.80;9.30;;;;;;;18.86;59.17;100026.09;5035753;28;20052;-82
2021/07/10 04:55:16;;;;;;;12.75;9.63;;;;;;;18.89;60.02;100019.63;5036071;28;20522;-81
2021/07/10 04:57:45;;;;;;;13.30;9.18;;;;;;;18.95;59.81;100023.59;5035669;28;20120;-81
2021/07/10 05:00:13;;;;;;;11.77;9.30;;;;;;;19.00;59.64;100021.34;5035671;28;20059;-82
2021/07/10 05:02:41;;;;;;;12.60;9.73;;;;;;;19.06;59.60;100020.00;5035868;28;20050;-81
2021/07/10 05:05:09;;;;;;;13.82;8.85;;;;;;;19.11;59.55;100023.91;5035914;28;20448;-81
2021/07/10 05:07:40;;;;;;;14.02;9.20;;;;;;;19.18;59.59;100026.06;5035603;28;20049;-81
2021/07/10 05:10:13;;;;;;;14.00;9.15;;;;;;;19.20;59.71;100026.75;5035919;28;20049;-81
2021/07/10 05:12:40;;;;;;;13.57;10.02;;;;;;;19.25;59.07;100030.69;5035489;28;20496;-81
2021/07/10 05:15:07;;;;;;;14.43;10.93;;;;;;;19.25;59.20;100028.03;5036708;28;20523;-82
2021/07/10 05:17:37;;;;;;;13.15;10.38;;;;;;;19.23;59.25;100016.66;5035718;28;20393;-81
2021/07/10 05:20:08;;;;;;;12.38;9.52;;;;;;;19.25;59.20;100016.53;5035402;28;20064;-81
2021/07/10 05:22:34;;;;;;;12.00;8.75;;;;;;;19.26;59.24;100019.03;5035302;28;20064;-81
2021/07/10 05:25:02;;;;;;;10.90;9.40;;;;;;;19.30;59.50;100021.44;5035103;28;20053;-82
2021/07/10 05:27:29;;;;;;;13.77;10.13;;;;;;;19.32;59.23;100020.31;5035148;28;20405;-81
2021/07/10 05:30:00;;;;;;;12.20;9.32;;;;;;;19.33;59.73;100015.84;5035023;28;20064;-82
2021/07/10 05:32:26;;;;;;;11.30;8.60;;;;;;;19.38;59.11;100010.91;5035410;28;20457;-82
2021/07/10 05:34:53;;;;;;;13.13;10.05;;;;;;;19.41;59.48;100007.97;5034886;28;20055;-82
2021/07/10 05:37:24;;;;;;;12.18;9.15;;;;;;;19.44;59.93;100009.53;5035416;28;20050;-81
2021/07/10 05:39:51;;;;;;;11.18;9.13;;;;;;;19.50;59.88;100001.78;5035112;28;20056;-82
2021/07/10 05:42:20;;;;;;;13.00;10.20;;;;;;;19.55;59.72;100006.69;5036861;28;20063;-86
2021/07/10 05:44:50;;;;;;;9.88;8.88;;;;;;;19.61;59.56;100013.31;5037842;28;20413;-82
2021/07/10 05:47:16;;;;;;;15.05;10.32;;;;;;;19.65;59.09;100023.59;5036082;28;20056;-82
2021/07/10 05:49:43;;;;;;;14.18;10.50;;;;;;;19.70;59.24;100030.34;5051366;28;20073;-82
2021/07/10 05:52:11;;;;;;;13.57;10.35;;;;;;;19.71;58.99;100027.53;5051521;28;20071;-82
2021/07/10 05:54:38;;;;;;;14.13;11.07;;;;;;;19.74;59.08;100027.22;5035738;28;20415;-81
2021/07/10 05:57:05;;;;;;;13.40;10.30;;;;;;;19.77;58.98;100020.75;5034747;28;20401;-82
2021/07/10 05:59:32;;;;;;;13.73;10.40;;;;;;;19.78;58.82;100023.28;5051238;28;20479;-84
2021/07/10 06:01:58;;;;;;;17.25;11.30;;;;;;;19.83;58.84;100027.38;5034299;28;20063;-85
2021/07/10 06:04:25;;;;;;;12.32;11.02;;;;;;;19.85;58.92;100025.41;5034260;28;20058;-86
2021/07/10 06:06:55;;;;;;;11.27;9.88;;;;;;;19.89;59.09;100026.81;5050995;28;20498;-86
2021/07/10 06:09:25;;;;;;;15.40;9.73;;;;;;;19.91;59.43;100024.84;5034228;28;20406;-85
2021/07/10 06:11:52;;;;;;;13.60;10.32;;;;;;;19.97;59.05;100023.44;5034484;28;20141;-85
2021/07/10 06:14:21;;;;;;;13.27;10.48;;;;;;;20.01;59.04;100017.69;5050456;28;20057;-86
2021/07/10 06:16:48;;;;;;;12.38;10.63;;;;;;;20.08;59.44;100022.47;5050974;28;20486;-85
2021/07/10 06:19:15;;;;;;;14.55;10.32;;;;;;;20.13;59.29;100013.03;5034441;28;20084;-85
2021/07/10 06:21:42;;;;;;;16.30;10.77;;;;;;;20.18;59.10;100010.75;5034187;28;20386;-81
2021/07/10 06:24:09;;;;;;;13.57;9.65;;;;;;;20.25;59.10;100005.69;5033791;28;20050;-81
2021/07/10 06:26:38;;;;;;;12.32;9.55;;;;;;;20.29;59.20;100009.75;5034318;28;20479;-82
2021/07/10 06:29:05;;;;;;;10.95;9.65;;;;;;;20.35;59.01;100016.34;5033968;28;20052;-82
2021/07/10 06:31:46;;;;;;;12.50;9.75;;;;;;;20.36;58.90;100006.47;5034272;28;20064;-84
2021/07/10 06:34:13;;;;;;;10.75;9.30;;;;;;;20.46;58.89;100003.78;5034071;28;20046;-85
2021/07/10 06:36:41;;;;;;;10.93;9.75;;;;;;;20.49;58.82;100016.88;5033677;28;20053;-85
2021/07/10 06:39:21;;;;;;;11.82;9.70;;;;;;;20.50;59.10;100010.53;5033988;28;20045;-85
2021/07/10 06:41:48;;;;;;;10.32;9.25;;;;;;;20.59;58.93;100006.97;5034010;28;20057;-86
2021/07/10 06:44:14;;;;;;;12.05;9.27;;;;;;;20.61;58.77;100005.00;5033943;28;20075;-85
2021/07/10 06:46:54;;;;;;;11.50;10.13;;;;;;;20.64;58.55;100009.22;5033617;28;20053;-88
2021/07/10 06:49:21;;;;;;;10.40;9.05;;;;;;;20.72;58.39;100011.16;5034521;28;20076;-88
2021/07/10 06:51:48;;;;;;;10.90;9.40;;;;;;;20.75;58.19;100005.50;5034008;28;20438;-84
2021/07/10 06:54:18;;;;;;;13.02;10.43;;;;;;;20.77;58.35;100006.19;5033520;28;20056;-84
2021/07/10 06:56:44;;;;;;;10.60;9.43;;;;;;;20.81;58.33;100010.25;5049946;28;20053;-84
2021/07/10 06:59:11;;;;;;;16.10;10.88;;;;;;;20.83;58.22;100010.97;5032949;28;20058;-84
2021/07/10 07:02:00;;;;;;;11.38;9.23;;;;;;;20.81;58.25;100010.25;5049818;28;20057;-86
2021/07/10 07:04:27;;;;;;;12.57;10.57;;;;;;;20.90;58.39;100013.91;5032905;28;20099;-88
2021/07/10 07:06:54;;;;;;;11.52;10.15;;;;;;;20.94;58.73;100008.09;5033122;28;20053;-82
2021/07/10 07:09:31;;;;;;;14.43;11.10;;;;;;;20.97;58.58;100009.63;5033742;28;20499;-82
2021/07/10 07:11:59;;;;;;;12.55;10.27;;;;;;;21.05;58.12;100007.06;5033217;28;20057;-82
2021/07/10 07:14:26;;;;;;;14.80;10.10;;;;;;;21.11;58.22;100013.66;5049966;28;20049;-82
2021/07/10 07:16:58;;;;;;;13.10;10.68;;;;;;;21.15;58.01;100016.88;5033258;28;20079;-81
2021/07/10 07:19:29;;;;;;;14.95;11.00;;;;;;;21.20;58.22;100019.94;5032777;28;20073;-81
2021/07/10 07:21:57;;;;;;;12.55;10.80;;;;;;;21.25;58.16;100016.81;5033284;28;20076;-82
2021/07/10 07:24:24;;;;;;;10.00;9.00;;;;;;;21.30;58.47;100018.03;5049653;28;20080;-82
2021/07/10 07:26:51;;;;;;;11.68;9.98;;;;;;;21.35;58.81;100014.91;5032862;28;20057;-82
2021/07/10 07:29:18;;;;;;;12.20;10.27;;;;;;;21.41;59.15;100010.78;5032704;28;20053;-86
2021/07/10 07:31:45;;;;;;;11.48;10.15;;;;;;;21.50;58.80;100003.66;5048724;28;20055;-86
2021/07/10 07:34:12;;;;;;;15.23;11.30;;;;;;;21.57;58.32;100010.94;5032796;28;20080;-86
2021/07/10 07:36:39;;;;;;;14.43;11.10;;;;;;;21.65;58.26;100004.81;5030425;28;20131;-88
2021/07/10 07:39:06;;;;;;;12.57;10.95;;;;;;;21.74;58.24;100011.97;5013332;28;20053;-88
2021/07/10 07:41:40;;;;;;;13.10;11.43;;;;;;;21.80;58.08;100004.28;5029171;28;20054;-88
2021/07/10 07:44:07;;;;;;;13.65;10.57;;;;;;;21.91;58.27;100009.41;5029018;28;20053;-81
2021/07/10 07:46:34;;;;;;;14.27;12.05;;;;;;;21.99;57.78;100008.63;5038351;28;20501;-82
2021/07/10 07:49:02;;;;;;;16.13;12.27;;;;;;;22.04;57.50;100005.47;5049069;28;20054;-82
2021/07/10 07:51:32;;;;;;;16.17;12.45;;;;;;;22.08;57.37;100002.31;5048929;28;20053;-82
2021/07/10 07:53:59;;;;;;;16.05;12.73;;;;;;;22.15;57.28;100007.91;5049338;28;20053;-82
2021/07/10 07:56:26;;;;;;;16.15;12.45;;;;;;;22.20;57.56;99997.53;5032722;28;20482;-82
2021/07/10 07:58:53;;;;;;;16.05;13.35;;;;;;;22.26;56.93;100007.66;5033004;28;20067;-82
2021/07/10 08:01:21;;;;;;;17.95;13.45;;;;;;;22.33;56.79;100007.00;5032550;28;20053;-82
2021/07/10 08:03:50;;;;;;;15.48;13.02;;;;;;;22.40;56.80;99991.97;5049164;28;20057;-82
2021/07/10 08:06:18;;;;;;;23.45;14.88;;;;;;;22.48;56.88;99993.84;5048893;28;20059;-82
2021/07/10 08:08:56;;;;;;;19.25;15.02;;;;;;;22.57;56.46;99986.72;5032877;28;20041;-84
2021/07/10 08:11:23;;;;;;;18.58;15.07;;;;;;;22.68;55.86;99983.72;5033730;28;20136;-86
2021/07/10 08:13:51;;;;;;;19.92;14.60;;;;;;;22.77;56.04;99988.13;5048317;28;20057;-86
2021/07/10 08:16:18;;;;;;;15.30;13.30;;;;;;;22.85;56.12;99981.97;5032231;28;20049;-86
2021/07/10 08:18:45;;;;;;;14.73;13.15;;;;;;;22.94;56.73;99985.50;5048986;28;20095;-86
2021/07/10 08:21:13;;;;;;;15.48;12.48;;;;;;;23.05;56.06;99987.03;5048907;28;20128;-86
2021/07/10 08:23:40;;;;;;;16.02;12.80;;;;;;;23.16;56.37;99988.59;5048773;28;20049;-86
2021/07/10 08:26:06;;;;;;;18.33;13.57;;;;;;;23.25;55.85;99982.22;5032080;28;20049;-87
2021/07/10 08:28:37;;;;;;;16.42;12.75;;;;;;;23.32;55.62;99982.41;5047522;28;20057;-82
2021/07/10 08:31:06;;;;;;;17.83;12.75;;;;;;;23.39;55.10;99987.97;5032198;28;20060;-88
2021/07/10 08:33:32;;;;;;;13.93;12.15;;;;;;;23.44;54.87;99991.03;5033463;28;20060;-88
2021/07/10 08:35:59;;;;;;;12.55;10.43;;;;;;;23.46;54.77;99991.69;5032014;28;20049;-86
2021/07/10 08:38:26;;;;;;;16.10;12.50;;;;;;;23.47;55.32;99982.63;5033551;28;20125;-86
2021/07/10 08:40:54;;;;;;;16.38;12.82;;;;;;;23.52;55.78;99976.75;5032031;28;20050;-86
2021/07/10 08:43:23;;;;;;;17.25;13.50;;;;;;;23.58;55.54;99980.63;5038539;28;20064;-86
2021/07/10 08:45:49;;;;;;;15.88;12.95;;;;;;;23.64;54.65;99974.56;5028758;28;20061;-86
2021/07/10 08:48:17;;;;;;;17.52;12.57;;;;;;;23.71;54.81;99967.50;5028577;28;20050;-86
2021/07/10 08:51:03;;;;;;;17.55;12.13;;;;;;;23.77;54.83;99974.88;5013384;28;20046;-86
2021/07/10 08:53:31;;;;;;;14.48;11.15;;;;;;;23.94;54.62;99973.03;5028545;28;20057;-87
2021/07/10 08:55:59;;;;;;;13.25;11.85;;;;;;;24.06;54.25;99968.16;5013107;28;20069;-86
2021/07/10 08:58:26;;;;;;;16.77;11.77;;;;;;;24.22;53.85;99977.19;5029156;28;20056;-84
2021/07/10 09:00:54;;;;;;;15.20;11.98;;;;;;;24.34;52.86;99962.38;5028232;28;20050;-84
2021/07/10 09:03:21;;;;;;;14.45;12.00;;;;;;;24.49;53.44;99969.75;5028467;28;20058;-84
2021/07/10 09:05:55;;;;;;;12.55;10.77;;;;;;;24.59;53.21;99973.06;5013046;28;20104;-84
2021/07/10 09:08:27;;;;;;;19.00;11.02;;;;;;;24.73;52.55;99967.94;5028524;28;20501;-89
2021/07/10 09:11:07;;;;;;;18.30;12.88;;;;;;;24.82;51.61;99966.88;5015939;28;20049;-81
2021/07/10 09:13:35;;;;;;;13.07;10.48;;;;;;;24.91;51.41;99969.56;5045579;28;20064;-88
2021/07/10 09:16:14;;;;;;;11.68;9.40;;;;;;;24.88;51.32;99969.91;5031318;28;20057;-89
2021/07/10 09:18:47;;;;;;;12.73;9.63;;;;;;;24.89;50.46;99955.47;5031745;28;20049;-89
2021/07/10 09:21:50;;;;;;;9.88;8.00;;;;;;;24.84;50.82;99953.28;5033007;28;20053;-89
2021/07/10 09:24:22;;;;;;;12.35;7.85;;;;;;;24.94;51.15;99953.06;5035180;28;20136;-89
2021/07/10 09:26:57;;;;;;;9.20;7.90;;;;;;;24.95;50.25;99952.91;5034982;28;20049;-89
2021/07/10 09:29:52;;;;;;;11.98;7.93;;;;;;;24.97;50.35;99961.63;5034999;28;20512;-89
2021/07/10 09:32:24;;;;;;;8.18;7.22;;;;;;;25.02;49.70;99950.34;5050709;28;20064;-82
2021/07/10 09:34:56;;;;;;;8.47;7.13;;;;;;;25.05;49.90;99954.53;5035013;28;20145;-82
2021/07/10 09:37:25;;;;;;;10.82;8.45;;;;;;;25.06;49.98;99948.97;5035119;28;20371;-82
2021/07/10 09:40:12;;;;;;;9.35;7.18;;;;;;;25.06;49.75;99951.66;5026500;28;20529;-89
2021/07/10 09:42:45;;;;;;;8.77;6.75;;;;;;;25.09;50.17;99943.19;5036012;28;20057;-89
2021/07/10 09:45:25;;;;;;;12.43;7.90;;;;;;;25.10;50.13;99935.97;5034699;28;20045;-89
2021/07/10 09:47:52;;;;;;;8.63;7.35;;;;;;;25.18;50.69;99933.22;5035119;28;20059;-84
2021/07/10 09:50:36;;;;;;;9.65;7.32;;;;;;;25.16;50.22;99929.88;5034903;28;20054;-88
2021/07/10 09:53:03;;;;;;;12.20;7.43;;;;;;;25.25;49.96;99941.41;5034489;28;20049;-89
2021/07/10 09:55:31;;;;;;;9.65;7.47;;;;;;;25.26;49.86;99929.63;5033526;28;20053;-86
2021/07/10 09:57:59;;;;;;;11.90;8.88;;;;;;;25.29;49.15;99931.97;5034920;28;20076;-85
2021/07/10 10:00:31;;;;;;;10.05;7.70;;;;;;;25.28;49.19;99930.28;5034549;28;20045;-86
2021/07/10 10:02:57;;;;;;;10.35;8.45;;;;;;;25.32;49.29;99928.91;5034646;28;20470;-86
2021/07/10 10:05:34;;;;;;;9.10;7.30;;;;;;;25.30;50.09;99930.13;5034607;28;20057;-86
2021/07/10 10:08:03;;;;;;;10.63;8.43;;;;;;;25.34;50.03;99929.56;5034336;28;20060;-86
2021/07/10 10:10:35;;;;;;;9.18;8.13;;;;;;;25.37;48.99;99925.66;5034393;28;20495;-86
2021/07/10 10:13:11;;;;;;;7.55;6.68;;;;;;;25.39;48.86;99918.25;5034213;28;20099;-86
2021/07/10 10:15:40;;;;;;;10.73;7.38;;;;;;;25.46;50.22;99927.25;5034383;28;20057;-86
2021/07/10 10:18:10;;;;;;;9.23;7.70;;;;;;;25.52;49.26;99923.00;5034306;28;20053;-86
2021/07/10 10:20:39;;;;;;;9.32;7.45;;;;;;;25.58;49.62;99926.88;5035339;28;20049;-86
2021/07/10 10:23:09;;;;;;;9.63;8.00;;;;;;;25.58;48.64;99922.31;5034239;28;20449;-85
2021/07/10 10:25:36;;;;;;;10.80;7.57;;;;;;;25.58;48.14;99918.78;5033657;28;20147;-89
2021/07/10 10:28:05;;;;;;;10.45;7.75;;;;;;;25.53;48.01;99923.84;5033812;28;20060;-89
2021/07/10 10:30:36;;;;;;;9.30;7.88;;;;;;;25.44;47.60;99925.78;5034212;28;20128;-90
2021/07/10 10:33:03;;;;;;;8.00;7.20;;;;;;;25.37;48.09;99921.13;5033065;28;20053;-90
2021/07/10 10:35:32;;;;;;;8.50;7.05;;;;;;;25.27;47.85;99917.00;5033648;28;20053;-90
2021/07/10 10:38:01;;;;;;;9.65;6.70;;;;;;;25.19;48.19;99918.72;5034018;28;20057;-90
2021/07/10 10:40:28;;;;;;;8.68;6.75;;;;;;;25.12;47.66;99909.72;5034013;28;20099;-90
2021/07/10 10:43:02;;;;;;;8.35;6.53;;;;;;;25.01;47.73;99913.66;5034078;28;20071;-90
2021/07/10 10:45:33;;;;;;;8.60;6.60;;;;;;;24.97;48.43;99923.09;5034162;28;20494;-90
2021/07/10 10:48:05;;;;;;;8.80;7.00;;;;;;;24.88;48.32;99918.75;5033804;28;20064;-90
2021/07/10 10:50:37;;;;;;;11.02;7.15;;;;;;;24.82;48.61;99918.44;5033378;28;20075;-90
2021/07/10 10:53:29;;;;;;;7.80;7.00;;;;;;;24.73;48.24;99919.50;5033906;28;20573;-90
2021/07/10 10:55:56;;;;;;;9.05;7.53;;;;;;;24.76;48.45;99915.59;5033651;28;20045;-90
2021/07/10 10:58:29;;;;;;;9.35;7.47;;;;;;;24.70;48.26;99914.47;5033546;28;20058;-86
2021/07/10 11:00:57;;;;;;;;;;;;;;;24.66;48.92;99911.28;5033970;28;20533;-82
2021/07/10 11:03:41;;;;;;;9.88;6.72;;;;;;;24.66;48.89;99905.06;5049919;28;20392;-83
2021/07/10 11:06:30;;;;;;;9.20;7.10;;;;;;;24.63;48.54;99905.44;5033349;28;20064;-82
2021/07/10 11:08:58;;;;;;;7.72;6.68;;;;;;;24.67;48.59;99899.50;5031936;28;20080;-85
2021/07/10 11:11:27;;;;;;;8.02;6.72;;;;;;;24.71;49.47;99900.00;5031726;28;20056;-86
2021/07/10 11:14:03;;;;;;;8.18;6.80;;;;;;;24.75;49.02;99898.63;5032260;28;20063;-85
2021/07/10 11:16:30;;;;;;;8.55;6.97;;;;;;;24.89;49.85;99890.84;5031833;28;20484;-85
2021/07/10 11:19:08;;;;;;;10.77;7.57;;;;;;;25.01;49.90;99893.94;5031718;28;20137;-86
2021/07/10 11:21:37;;;;;;;9.90;7.57;;;;;;;25.16;49.58;99886.78;5030951;28;20052;-90
2021/07/10 11:26:55;;;;;;;11.82;7.80;;;;;;;25.48;50.57;99883.97;5033001;28;20083;-82
2021/07/10 11:29:31;;;;;;;8.25;7.05;;;;;;;25.61;49.43;99886.91;5032898;28;20486;-86
2021/07/10 11:32:25;;;;;;;8.90;7.63;;;;;;;25.74;49.51;99877.34;5033102;28;20136;-86